Frontier Kotobuki — 3EXC5 — position and weather

sailwx.info

Track history (hours):
 
Tides and Currents Weather Stations Pressure Air Temp Water Temp Dewpoint Dewpoint Depression Visibility Wind Speed Wind Dir Waves Ship Positions

Frontier Kotobuki

Last reported at 2016-Aug-04 14:31 UTC. Time now 2016-Aug-25 20:15 UTC.
Position N 33°51' E 135°00'.
Warning: this ship's position is 21 days out of date.

Length 290 m; draft 10.3 m.

Type: Cargo ship. MMSI: 355036000.

Date/timePositionNaut miles runAvg speedWind from/ knotsBaromVisibWave heightAir tempDewpointWater temp
2016-Aug-04 14:31N 33°51' E 135°00'1414.7
2016-Aug-04 13:33N 34°05' E 134°58'1212.1
2016-Aug-04 12:33N 34°17' E 134°58'1313.0
2016-Aug-04 11:33N 34°29' E 135°05'7 7.0
2016-Aug-04 10:33N 34°36' E 135°03'1110.9
2016-Aug-04 09:33N 34°33' E 134°50'7 6.7
2016-Aug-04 08:32N 34°40' E 134°47'  
2016-Jul-29 09:32N 34°42' E 134°50'4 4.3
2016-Jul-29 08:33N 34°40' E 134°46'1 0.4
2016-Jul-29 06:33N 34°40' E 134°45'0 0.0
2016-Jul-28 19:26N 34°40' E 134°45'0 0.1
2016-Jul-28 17:14N 34°40' E 134°45'0 0.0
2016-Jul-28 10:26N 34°40' E 134°46'0 0.1
2016-Jul-28 09:32N 34°40' E 134°45'0 0.1
2016-Jul-28 08:20N 34°40' E 134°45'0 0.0
2016-Jul-28 07:08N 34°40' E 134°45'0 0.0
2016-Jul-27 21:20N 34°40' E 134°46'0 0.2
2016-Jul-27 20:32N 34°40' E 134°46'0 0.2
2016-Jul-27 19:32N 34°40' E 134°45'0 0.0
2016-Jul-27 16:32N 34°40' E 134°45'0 0.2
2016-Jul-27 15:32N 34°40' E 134°46'0 0.0
2016-Jul-27 09:26N 34°40' E 134°46'0 0.2
2016-Jul-27 08:26N 34°40' E 134°45'0 0.0
2016-Jul-27 04:26N 34°40' E 134°45'0 0.2
2016-Jul-27 03:14N 34°40' E 134°45'0 0.0
2016-Jul-26 19:32N 34°40' E 134°45'0 0.0
2016-Jul-26 14:32N 34°40' E 134°45'2 0.5
2016-Jul-26 10:33N 34°38' E 134°44'7 6.7
2016-Jul-26 09:33N 34°35' E 134°52'1010.0
2016-Jul-26 08:33N 34°36' E 135°04'6 5.7
2016-Jul-26 07:33N 34°31' E 135°07'1212.0
2016-Jul-26 06:33N 34°20' E 135°00'1211.9
2016-Jul-26 05:33N 34°08' E 134°60'9 9.1
2016-Jul-26 04:33N 33°59' E 134°58'  
Track history (hours):
 
Tides and Currents Weather Stations Pressure Air Temp Water Temp Dewpoint Dewpoint Depression Visibility Wind Speed Wind Dir Waves Ship Positions

Frontier Kotobuki

Last reported at 2016-Aug-04 14:31 UTC. Time now 2016-Aug-25 20:15 UTC.
Position N 33°51' E 135°00'.
Warning: this ship's position is 21 days out of date.

Length 290 m; draft 10.3 m.

Type: Cargo ship. MMSI: 355036000.

Date/timePositionNaut miles runAvg speedWind from/ knotsBaromVisibWave heightAir tempDewpointWater temp
2016-Aug-04 14:31N 33°51' E 135°00'1414.7
2016-Aug-04 13:33N 34°05' E 134°58'1212.1
2016-Aug-04 12:33N 34°17' E 134°58'1313.0
2016-Aug-04 11:33N 34°29' E 135°05'7 7.0
2016-Aug-04 10:33N 34°36' E 135°03'1110.9
2016-Aug-04 09:33N 34°33' E 134°50'7 6.7
2016-Aug-04 08:32N 34°40' E 134°47'  
2016-Jul-29 09:32N 34°42' E 134°50'4 4.3
2016-Jul-29 08:33N 34°40' E 134°46'1 0.4
2016-Jul-29 06:33N 34°40' E 134°45'0 0.0
2016-Jul-28 19:26N 34°40' E 134°45'0 0.1
2016-Jul-28 17:14N 34°40' E 134°45'0 0.0
2016-Jul-28 10:26N 34°40' E 134°46'0 0.1
2016-Jul-28 09:32N 34°40' E 134°45'0 0.1
2016-Jul-28 08:20N 34°40' E 134°45'0 0.0
2016-Jul-28 07:08N 34°40' E 134°45'0 0.0
2016-Jul-27 21:20N 34°40' E 134°46'0 0.2
2016-Jul-27 20:32N 34°40' E 134°46'0 0.2
2016-Jul-27 19:32N 34°40' E 134°45'0 0.0
2016-Jul-27 16:32N 34°40' E 134°45'0 0.2
2016-Jul-27 15:32N 34°40' E 134°46'0 0.0
2016-Jul-27 09:26N 34°40' E 134°46'0 0.2
2016-Jul-27 08:26N 34°40' E 134°45'0 0.0
2016-Jul-27 04:26N 34°40' E 134°45'0 0.2
2016-Jul-27 03:14N 34°40' E 134°45'0 0.0
2016-Jul-26 19:32N 34°40' E 134°45'0 0.0
2016-Jul-26 14:32N 34°40' E 134°45'2 0.5
2016-Jul-26 10:33N 34°38' E 134°44'7 6.7
2016-Jul-26 09:33N 34°35' E 134°52'1010.0
2016-Jul-26 08:33N 34°36' E 135°04'6 5.7
2016-Jul-26 07:33N 34°31' E 135°07'1212.0
2016-Jul-26 06:33N 34°20' E 135°00'1211.9
2016-Jul-26 05:33N 34°08' E 134°60'9 9.1
2016-Jul-26 04:33N 33°59' E 134°58'  

Dump ship's entire track history